Pagrindinis puslapis
METAR-TAF:

METAR-TAF

Oro uostai :

Utti, Suomija

platuma: 60-54N, ilguma: 026-56E, Aukštis: 100 m

Dabartinis oras

Ataskaita buvo paskelbta 16 minutes, ne 19:50 UTC
Vėjas 1 kt iš Vakarų
Temperatūra 5°C
Drėgmė 100%
Slėgis 1017 hPa
Matomumas: 0400 m
Mažai debesys ne aukštis 300 ft
Apsiniaukę ne aukštis 3500 ft
rūkas

METAR: EFUT 301950Z AUTO 27001KT 0400 R25/1000U FG FEW003 OVC035 05/05 Q1017

Laikas: 22:06 (20:06 UTC)

Prognozė

Ataskaita buvo paskelbta 9 valandos ir 55 minutes, ne 10:11 UTC
Prognozė galioja nuo 30 metu 10 UTC su 30 metu 13 UTC
Vėjas 5 kt iš Vakarų/Pietvakarių
Matomumas 10 km arba daugiau
Su prošvaistėmis ne aukštis 300 ft
Tapsmas
nuo 30 metu 11 UTC su 30 metu 13 UTC
Su prošvaistėmis ne aukštis 1000 ft

TAF: EFUT 301011Z 3010/3013 25005KT 9999 BKN003 BECMG 3011/3013 BKN010

Orai ataskaitas ir orų prognozės (METAR, TAF).

turimą stotys yra geltonos ir raudonos taškus žemėlapyje.

Perkelti pele per norėdami pamatyti stoties vardą.

Tada spustelėkite, norėdami matyti oro stebėjimo ir prognozės.

Norėdami pakeisti žemėlapį: spustelėkite ant žalios mygtukų su juodo kryžiaus žemyn,; žalią mygtuką su brūkšneliu, jei norite nutolinti; arba žalių rodyklių gretimoms žemėlapius.


METAR-TAF: